createdAt,value
2019-06-25T00:01:59.140Z,23.88
2019-06-25T00:04:29.227Z,23.89
2019-06-25T00:06:59.308Z,23.78
2019-06-25T00:09:29.393Z,23.69
2019-06-25T00:11:59.481Z,23.58
2019-06-25T00:14:29.575Z,23.41
2019-06-25T00:16:59.941Z,23.35
2019-06-25T00:19:30.054Z,23.27
2019-06-25T00:22:00.140Z,23.29
2019-06-25T00:24:30.297Z,23.15
2019-06-25T00:27:00.407Z,22.96
2019-06-25T00:29:30.505Z,22.90
2019-06-25T00:32:00.635Z,22.73
2019-06-25T00:34:30.766Z,22.67
2019-06-25T00:37:00.936Z,22.71
2019-06-25T00:39:31.096Z,22.90
2019-06-25T00:42:01.169Z,22.63
2019-06-25T00:44:31.266Z,22.78
2019-06-25T00:47:01.427Z,22.83
2019-06-25T00:49:31.466Z,22.77
2019-06-25T00:52:01.550Z,22.86
2019-06-25T00:54:31.635Z,22.96
2019-06-25T00:57:01.806Z,23.13
2019-06-25T00:59:31.917Z,23.20
2019-06-25T01:02:10.819Z,23.26
2019-06-25T01:04:40.933Z,23.23
2019-06-25T01:07:10.990Z,23.38
2019-06-25T01:09:41.069Z,23.29
2019-06-25T01:12:11.155Z,23.34
2019-06-25T01:14:41.246Z,23.36
2019-06-25T01:17:11.346Z,23.31
2019-06-25T01:19:41.427Z,23.41
2019-06-25T01:22:11.520Z,23.42
2019-06-25T01:24:41.618Z,23.37
2019-06-25T01:27:11.718Z,23.34
2019-06-25T01:29:41.870Z,23.46
2019-06-25T01:32:11.949Z,23.40
2019-06-25T01:34:42.056Z,23.48
2019-06-25T01:37:12.138Z,23.45
2019-06-25T01:39:42.240Z,23.22
2019-06-25T01:42:12.334Z,23.20
2019-06-25T01:44:42.427Z,23.20
2019-06-25T01:47:12.511Z,23.26
2019-06-25T01:49:42.599Z,23.31
2019-06-25T01:52:12.666Z,23.27
2019-06-25T01:54:42.770Z,23.27
2019-06-25T01:57:12.949Z,23.22
2019-06-25T01:59:43.011Z,23.16
2019-06-25T02:02:13.098Z,23.15
2019-06-25T02:04:43.231Z,23.19
2019-06-25T02:07:13.330Z,23.13
2019-06-25T02:09:43.441Z,23.18
2019-06-25T02:12:14.507Z,23.17
2019-06-25T02:14:44.608Z,23.02
2019-06-25T02:17:14.766Z,22.89
2019-06-25T02:19:44.835Z,22.94
2019-06-25T02:22:14.911Z,22.89
2019-06-25T02:24:45.102Z,22.90
2019-06-25T02:27:15.203Z,22.76
2019-06-25T02:29:45.318Z,22.69
2019-06-25T02:32:15.441Z,22.62
2019-06-25T02:34:45.525Z,22.61
2019-06-25T02:37:15.628Z,22.62
2019-06-25T02:39:45.710Z,22.55
2019-06-25T02:42:15.791Z,22.41
2019-06-25T02:44:45.869Z,22.40
2019-06-25T02:47:16.008Z,22.31
2019-06-25T02:49:46.111Z,22.21
2019-06-25T02:52:16.169Z,22.28
2019-06-25T02:54:46.262Z,22.32
2019-06-25T02:57:16.347Z,22.45
2019-06-25T02:59:46.463Z,22.44
2019-06-25T03:02:16.523Z,22.25
2019-06-25T03:04:46.614Z,22.34
2019-06-25T03:07:16.709Z,22.39
2019-06-25T03:09:46.825Z,22.35
2019-06-25T03:12:16.911Z,22.28
2019-06-25T03:14:47.005Z,22.16
2019-06-25T03:17:17.466Z,22.02
2019-06-25T03:19:47.550Z,22.00
2019-06-25T03:22:17.625Z,22.06
2019-06-25T03:24:47.785Z,22.10
2019-06-25T03:27:17.851Z,22.03
2019-06-25T03:29:47.928Z,22.05
2019-06-25T03:32:18.030Z,21.94
2019-06-25T03:34:48.217Z,21.84
2019-06-25T03:37:18.318Z,21.77
2019-06-25T03:39:48.409Z,21.87
2019-06-25T03:42:18.507Z,21.84
2019-06-25T03:44:48.603Z,21.87
2019-06-25T03:47:19.641Z,21.84
2019-06-25T03:49:49.722Z,21.85
2019-06-25T03:52:19.838Z,21.90
2019-06-25T03:54:49.953Z,21.91
2019-06-25T03:57:20.030Z,21.82
2019-06-25T03:59:50.138Z,21.86
2019-06-25T04:02:20.222Z,21.80
2019-06-25T04:04:50.289Z,21.84
2019-06-25T04:07:20.416Z,21.84
2019-06-25T04:09:50.484Z,21.82
2019-06-25T04:12:20.706Z,21.85
2019-06-25T04:14:50.930Z,21.91
2019-06-25T04:17:21.103Z,21.94
2019-06-25T04:19:52.150Z,21.99
2019-06-25T04:22:22.243Z,21.96
2019-06-25T04:24:53.401Z,22.09
2019-06-25T04:27:23.613Z,22.15
2019-06-25T04:29:53.694Z,22.25
2019-06-25T04:32:32.604Z,22.34
2019-06-25T04:34:55.572Z,22.23
2019-06-25T04:37:25.638Z,22.43
2019-06-25T04:39:55.715Z,22.54
2019-06-25T04:42:25.903Z,22.67
2019-06-25T04:44:55.935Z,22.65
2019-06-25T04:47:26.010Z,22.68
2019-06-25T04:49:56.081Z,22.93
2019-06-25T04:52:26.453Z,23.10
2019-06-25T04:54:56.530Z,23.21
2019-06-25T04:57:26.615Z,23.39
2019-06-25T04:59:56.711Z,23.29
2019-06-25T05:02:26.832Z,23.50
2019-06-25T05:04:56.905Z,23.73
2019-06-25T05:07:27.012Z,23.83
2019-06-25T05:09:57.116Z,23.85
2019-06-25T05:12:27.225Z,23.73
2019-06-25T05:14:58.793Z,23.88
2019-06-25T05:17:28.879Z,23.92
2019-06-25T05:19:58.947Z,23.96
2019-06-25T05:22:29.054Z,24.08
2019-06-25T05:24:59.613Z,24.26
2019-06-25T05:27:29.706Z,24.40
2019-06-25T05:29:59.796Z,24.38
2019-06-25T05:32:29.941Z,24.60
2019-06-25T05:35:00.117Z,24.73
2019-06-25T05:37:34.968Z,24.83
2019-06-25T05:40:05.473Z,25.08
2019-06-25T05:42:35.656Z,25.24
2019-06-25T05:45:07.315Z,25.52
2019-06-25T05:47:37.428Z,25.64
2019-06-25T05:50:07.989Z,25.61
2019-06-25T05:52:38.074Z,25.71
2019-06-25T05:55:09.346Z,25.91
2019-06-25T05:57:39.444Z,25.99
2019-06-25T06:00:10.784Z,25.99
2019-06-25T06:02:40.920Z,26.16
2019-06-25T06:05:11.456Z,26.48
2019-06-25T06:07:41.615Z,26.61
2019-06-25T06:10:12.221Z,26.93
2019-06-25T06:12:42.328Z,27.11
2019-06-25T06:15:13.111Z,27.23
2019-06-25T06:18:07.254Z,27.39
2019-06-25T06:20:37.335Z,27.58
2019-06-25T06:23:07.434Z,28.01
2019-06-25T06:25:37.527Z,28.34
2019-06-25T06:28:07.622Z,28.56
2019-06-25T06:30:37.782Z,28.68
2019-06-25T06:33:07.857Z,28.80
2019-06-25T06:35:38.032Z,29.06
2019-06-25T06:38:08.117Z,29.30
2019-06-25T06:40:38.215Z,29.49
2019-06-25T06:43:08.312Z,29.71
2019-06-25T06:45:38.501Z,29.84
2019-06-25T06:48:08.584Z,29.99
2019-06-25T06:50:38.681Z,30.23
2019-06-25T06:53:08.773Z,30.51
2019-06-25T06:55:38.935Z,30.78
2019-06-25T06:58:09.126Z,31.01
2019-06-25T07:00:39.247Z,31.14
2019-06-25T07:03:09.288Z,31.29
2019-06-25T07:05:39.484Z,31.45
2019-06-25T07:08:09.555Z,31.73
2019-06-25T07:10:39.664Z,31.94
2019-06-25T07:13:09.857Z,32.10
2019-06-25T07:15:39.999Z,32.10
2019-06-25T07:18:10.109Z,32.19
2019-06-25T07:20:40.264Z,32.27
2019-06-25T07:23:11.334Z,32.50
2019-06-25T07:25:41.569Z,32.52
2019-06-25T07:28:12.187Z,32.48
2019-06-25T07:30:42.443Z,32.68
2019-06-25T07:33:12.601Z,32.88
2019-06-25T07:35:42.692Z,32.83
2019-06-25T07:38:12.772Z,32.89
2019-06-25T07:40:42.862Z,32.97
2019-06-25T07:43:13.012Z,33.11
2019-06-25T07:45:43.503Z,32.78
2019-06-25T07:48:13.583Z,32.66
2019-06-25T07:50:43.665Z,32.85
2019-06-25T07:53:13.764Z,32.80
2019-06-25T07:55:43.944Z,32.53
2019-06-25T07:58:14.025Z,32.56
2019-06-25T08:00:44.195Z,32.55
2019-06-25T08:03:14.413Z,32.62
2019-06-25T08:05:44.497Z,32.64
2019-06-25T08:08:14.655Z,32.54
2019-06-25T08:10:44.734Z,32.54
2019-06-25T08:13:14.962Z,32.37
2019-06-25T08:15:45.257Z,32.23
2019-06-25T08:18:16.086Z,32.29
2019-06-25T08:20:46.199Z,32.56
2019-06-25T08:23:16.295Z,32.65
2019-06-25T08:25:46.382Z,32.51
2019-06-25T08:28:16.462Z,32.62
2019-06-25T08:30:46.563Z,33.00
2019-06-25T08:33:16.634Z,33.20
2019-06-25T08:35:46.795Z,33.01
2019-06-25T08:38:16.897Z,33.15
2019-06-25T08:40:47.918Z,33.44
2019-06-25T08:43:18.019Z,33.56
2019-06-25T08:45:48.123Z,33.78
2019-06-25T08:48:18.194Z,33.93
2019-06-25T08:50:48.326Z,34.07
2019-06-25T08:53:18.366Z,34.17
2019-06-25T08:55:48.477Z,34.26
2019-06-25T08:58:18.603Z,34.38
2019-06-25T09:00:48.686Z,34.42
2019-06-25T09:03:18.763Z,34.29
2019-06-25T09:05:48.852Z,34.18
2019-06-25T09:08:18.913Z,34.32
2019-06-25T09:10:50.197Z,34.49
2019-06-25T09:13:20.478Z,34.57
2019-06-25T09:15:50.668Z,34.62
2019-06-25T09:18:21.818Z,34.49
2019-06-25T09:20:51.973Z,34.19
2019-06-25T09:23:22.064Z,34.54
2019-06-25T09:25:52.221Z,34.57
2019-06-25T09:28:22.300Z,34.51
2019-06-25T09:30:52.384Z,34.52
2019-06-25T09:33:22.550Z,34.60
2019-06-25T09:35:52.837Z,34.56
2019-06-25T09:38:22.959Z,34.51
2019-06-25T09:40:51.849Z,34.59
2019-06-25T09:43:20.746Z,34.78
2019-06-25T09:45:51.011Z,34.79
2019-06-25T09:48:21.160Z,34.82
2019-06-25T09:50:51.869Z,34.77
2019-06-25T09:53:22.386Z,34.81
2019-06-25T09:55:52.515Z,34.86
2019-06-25T09:58:22.583Z,35.01
2019-06-25T10:00:56.161Z,35.14
2019-06-25T10:03:26.588Z,35.03
2019-06-25T10:05:56.745Z,34.89
2019-06-25T10:08:26.841Z,34.53
2019-06-25T10:10:57.904Z,34.38
2019-06-25T10:13:28.002Z,34.50
2019-06-25T10:15:58.117Z,34.67
2019-06-25T10:18:43.393Z,34.45
2019-06-25T10:21:00.021Z,34.80
2019-06-25T10:23:30.110Z,35.05
2019-06-25T10:26:00.197Z,35.09
2019-06-25T10:28:38.683Z,34.98
2019-06-25T10:31:02.065Z,34.80
2019-06-25T10:33:32.165Z,34.86
2019-06-25T10:36:02.265Z,34.98
2019-06-25T10:38:32.345Z,35.25
2019-06-25T10:41:02.450Z,35.36
2019-06-25T10:43:32.545Z,35.53
2019-06-25T10:46:02.635Z,35.53
2019-06-25T10:48:32.731Z,35.52
2019-06-25T10:51:06.568Z,35.53
2019-06-25T10:53:34.692Z,35.73
2019-06-25T10:56:05.076Z,35.58
2019-06-25T10:58:35.188Z,35.42
2019-06-25T11:01:05.357Z,35.53
2019-06-25T11:03:35.462Z,35.52
2019-06-25T11:06:06.647Z,35.23
2019-06-25T11:08:36.997Z,35.31
2019-06-25T11:11:07.087Z,35.49
2019-06-25T11:13:37.184Z,35.56
2019-06-25T11:16:07.295Z,35.54
2019-06-25T11:18:37.379Z,35.27
2019-06-25T11:21:07.478Z,35.15
2019-06-25T11:23:37.593Z,35.20
2019-06-25T11:26:21.793Z,35.00
2019-06-25T11:28:39.438Z,35.20
2019-06-25T11:31:09.729Z,35.36
2019-06-25T11:33:39.842Z,35.49
2019-06-25T11:36:20.967Z,35.77
2019-06-25T11:38:41.719Z,35.70
2019-06-25T11:41:11.837Z,35.78
2019-06-25T11:43:44.580Z,35.85
2019-06-25T11:46:13.725Z,35.93
2019-06-25T11:48:43.816Z,36.05
2019-06-25T11:51:13.928Z,36.03
2019-06-25T11:53:44.019Z,35.80
2019-06-25T11:56:14.191Z,35.78
2019-06-25T11:58:44.432Z,35.55
2019-06-25T12:01:14.471Z,35.66
2019-06-25T12:03:44.537Z,35.46
2019-06-25T12:06:14.906Z,35.84
2019-06-25T12:08:44.989Z,35.99
2019-06-25T12:11:15.101Z,35.87
2019-06-25T12:13:45.212Z,35.97
2019-06-25T12:16:15.315Z,35.76
2019-06-25T12:18:45.416Z,35.84
2019-06-25T12:21:15.492Z,35.85
2019-06-25T12:23:45.587Z,35.94
2019-06-25T12:26:15.670Z,35.94
2019-06-25T12:28:45.782Z,36.04
2019-06-25T12:31:16.060Z,36.18
2019-06-25T12:33:46.984Z,36.08
2019-06-25T12:36:18.750Z,36.13
2019-06-25T12:38:48.919Z,35.65
2019-06-25T12:41:20.012Z,36.11
2019-06-25T12:43:50.120Z,36.33
2019-06-25T12:46:20.276Z,36.31
2019-06-25T12:48:50.336Z,36.31
2019-06-25T12:51:20.443Z,36.35
2019-06-25T12:53:50.550Z,36.32
2019-06-25T12:56:20.635Z,36.31
2019-06-25T12:58:50.841Z,36.51
2019-06-25T13:01:20.913Z,36.60
2019-06-25T13:03:51.002Z,36.56
2019-06-25T13:06:21.102Z,36.46
2019-06-25T13:08:51.208Z,36.40
2019-06-25T13:11:21.286Z,36.42
2019-06-25T13:13:51.402Z,36.52
2019-06-25T13:16:21.557Z,36.53
2019-06-25T13:18:51.651Z,36.70
2019-06-25T13:21:21.722Z,36.70
2019-06-25T13:23:51.813Z,36.56
2019-06-25T13:26:21.959Z,36.59
2019-06-25T13:28:52.046Z,36.69
2019-06-25T13:31:23.113Z,36.58
2019-06-25T13:33:53.233Z,36.55
2019-06-25T13:36:24.313Z,36.74
2019-06-25T13:38:54.401Z,36.85
2019-06-25T13:41:24.509Z,36.91
2019-06-25T13:43:54.636Z,37.02
2019-06-25T13:46:24.722Z,37.09
2019-06-25T13:48:54.809Z,37.16
2019-06-25T13:51:25.008Z,37.18
2019-06-25T13:53:55.094Z,37.02
2019-06-25T13:56:25.222Z,37.02
2019-06-25T13:58:55.296Z,37.19
2019-06-25T14:01:25.380Z,37.28
2019-06-25T14:03:55.491Z,37.39
2019-06-25T14:06:25.576Z,37.31
2019-06-25T14:08:55.684Z,37.38
2019-06-25T14:11:25.770Z,37.54
2019-06-25T14:13:55.887Z,37.64
2019-06-25T14:16:25.985Z,37.52
2019-06-25T14:18:56.071Z,37.57
2019-06-25T14:21:26.170Z,37.35
2019-06-25T14:23:56.291Z,37.34
2019-06-25T14:26:26.976Z,37.41
2019-06-25T14:28:57.076Z,37.43
2019-06-25T14:31:27.175Z,37.44
2019-06-25T14:33:57.317Z,37.37
2019-06-25T14:36:27.428Z,37.34
2019-06-25T14:38:57.537Z,37.39
2019-06-25T14:41:27.683Z,37.45
2019-06-25T14:43:57.764Z,37.58
2019-06-25T14:46:27.852Z,37.55
2019-06-25T14:48:57.998Z,37.55
2019-06-25T14:51:28.116Z,37.47
2019-06-25T14:53:58.223Z,37.30
2019-06-25T14:56:28.343Z,37.35
2019-06-25T14:58:58.444Z,37.13
2019-06-25T15:01:28.528Z,37.23
2019-06-25T15:03:59.541Z,36.93
2019-06-25T15:06:29.642Z,36.83
2019-06-25T15:09:00.758Z,36.95
2019-06-25T15:11:32.435Z,37.00
2019-06-25T15:14:02.543Z,37.18
2019-06-25T15:16:32.655Z,37.32
2019-06-25T15:19:02.779Z,37.48
2019-06-25T15:21:32.982Z,37.44
2019-06-25T15:24:03.082Z,37.50
2019-06-25T15:26:33.268Z,37.46
2019-06-25T15:29:03.383Z,37.34
2019-06-25T15:31:33.507Z,37.36
2019-06-25T15:34:03.645Z,37.34
2019-06-25T15:36:33.702Z,37.39
2019-06-25T15:39:04.798Z,37.36
2019-06-25T15:41:36.509Z,37.29
2019-06-25T15:44:06.653Z,37.27
2019-06-25T15:46:36.759Z,37.08
2019-06-25T15:49:07.142Z,36.95
2019-06-25T15:51:37.261Z,36.91
2019-06-25T15:54:07.433Z,36.84
2019-06-25T15:56:37.548Z,36.81
2019-06-25T15:59:07.661Z,36.84
2019-06-25T16:01:37.829Z,36.90
2019-06-25T16:04:07.879Z,36.87
2019-06-25T16:06:37.996Z,36.97
2019-06-25T16:09:08.150Z,36.96
2019-06-25T16:11:39.387Z,36.94
2019-06-25T16:14:09.500Z,36.94
2019-06-25T16:16:39.601Z,36.99
2019-06-25T16:19:09.733Z,36.96
2019-06-25T16:21:39.863Z,36.62
2019-06-25T16:24:09.973Z,37.03
2019-06-25T16:26:41.054Z,37.07
2019-06-25T16:29:12.103Z,37.10
2019-06-25T16:31:42.194Z,37.05
2019-06-25T16:34:12.273Z,37.12
2019-06-25T16:36:42.387Z,37.16
2019-06-25T16:39:18.954Z,37.13
2019-06-25T16:41:44.375Z,37.12
2019-06-25T16:44:14.478Z,37.11
2019-06-25T16:49:26.204Z,36.90
2019-06-25T16:51:56.391Z,36.85
2019-06-25T16:54:26.819Z,36.80
2019-06-25T16:56:57.006Z,36.81
2019-06-25T16:59:27.039Z,36.75
2019-06-25T17:01:57.148Z,36.73
2019-06-25T17:04:27.366Z,36.72
2019-06-25T17:06:57.476Z,36.72
2019-06-25T17:09:35.064Z,36.60
2019-06-25T17:11:59.377Z,36.61
2019-06-25T17:14:29.487Z,36.66
2019-06-25T17:16:59.617Z,36.66
2019-06-25T17:19:29.875Z,36.64
2019-06-25T17:22:00.037Z,36.41
2019-06-25T17:24:30.154Z,36.76
2019-06-25T17:27:00.254Z,36.66
2019-06-25T17:29:30.327Z,36.63
2019-06-25T17:32:01.218Z,36.60
2019-06-25T17:34:31.330Z,36.68
2019-06-25T17:37:01.439Z,36.72
2019-06-25T17:39:31.516Z,36.71
2019-06-25T17:42:01.622Z,36.70
2019-06-25T17:44:31.771Z,36.68
2019-06-25T17:47:01.813Z,36.70
2019-06-25T17:49:31.908Z,36.69
2019-06-25T17:52:02.013Z,36.56
2019-06-25T17:54:32.102Z,36.42
2019-06-25T17:57:02.198Z,36.43
2019-06-25T17:59:32.285Z,36.39
2019-06-25T18:02:02.385Z,36.31
2019-06-25T18:04:32.479Z,36.21
2019-06-25T18:07:02.612Z,36.20
2019-06-25T18:09:40.209Z,36.11
2019-06-25T18:12:04.593Z,36.02
2019-06-25T18:14:34.722Z,35.89
2019-06-25T18:17:04.904Z,35.87
2019-06-25T18:19:34.988Z,35.78
2019-06-25T18:22:05.520Z,35.77
2019-06-25T18:24:35.604Z,35.80
2019-06-25T18:27:05.727Z,35.75
2019-06-25T18:29:35.841Z,35.72
2019-06-25T18:32:08.440Z,35.63
2019-06-25T18:34:38.111Z,35.58
2019-06-25T18:37:08.230Z,35.54
2019-06-25T18:39:38.341Z,35.49
2019-06-25T18:42:08.466Z,35.44
2019-06-25T18:44:38.608Z,35.51
2019-06-25T18:47:08.743Z,35.53
2019-06-25T18:49:39.314Z,35.51
2019-06-25T18:52:09.625Z,35.47
2019-06-25T18:54:39.716Z,35.41
2019-06-25T18:57:09.829Z,35.31
2019-06-25T18:59:39.909Z,35.19
2019-06-25T19:02:10.037Z,35.05
2019-06-25T19:04:40.163Z,34.94
2019-06-25T19:07:10.271Z,34.47
2019-06-25T19:09:41.323Z,34.65
2019-06-25T19:12:11.521Z,34.46
2019-06-25T19:14:41.619Z,34.29
2019-06-25T19:17:11.723Z,34.20
2019-06-25T19:19:42.099Z,34.07
2019-06-25T19:22:12.215Z,33.95
2019-06-25T19:24:42.320Z,33.86
2019-06-25T19:27:12.452Z,33.71
2019-06-25T19:29:42.576Z,33.58
2019-06-25T19:32:12.681Z,33.50
2019-06-25T19:34:42.774Z,33.46
2019-06-25T19:37:12.878Z,33.34
2019-06-25T19:39:43.006Z,33.21
2019-06-25T19:42:13.188Z,33.23
2019-06-25T19:44:43.309Z,33.16
2019-06-25T19:47:13.485Z,33.15
2019-06-25T19:49:44.092Z,33.07
2019-06-25T19:52:14.212Z,32.67
2019-06-25T19:54:44.294Z,33.01
2019-06-25T19:57:14.437Z,33.02
2019-06-25T19:59:44.522Z,32.94
2019-06-25T20:02:14.706Z,32.96
2019-06-25T20:04:44.857Z,32.88
2019-06-25T20:07:14.950Z,32.81
2019-06-25T20:09:45.036Z,32.82
2019-06-25T20:12:15.125Z,32.74
2019-06-25T20:14:45.228Z,32.66
2019-06-25T20:17:15.339Z,32.58
2019-06-25T20:19:45.501Z,32.61
2019-06-25T20:22:15.576Z,32.50
2019-06-25T20:24:46.194Z,32.38
2019-06-25T20:27:16.596Z,32.14
2019-06-25T20:29:46.715Z,32.27
2019-06-25T20:32:16.795Z,32.23
2019-06-25T20:34:46.931Z,32.12
2019-06-25T20:37:17.026Z,32.18
2019-06-25T20:39:47.206Z,32.17
2019-06-25T20:42:17.294Z,32.18
2019-06-25T20:44:48.372Z,32.12
2019-06-25T20:47:19.433Z,32.09
2019-06-25T20:49:49.542Z,32.04
2019-06-25T20:52:19.650Z,31.98
2019-06-25T20:54:49.769Z,31.89
2019-06-25T20:57:19.884Z,31.81
2019-06-25T20:59:49.986Z,31.73
2019-06-25T21:02:20.110Z,31.67
2019-06-25T21:04:51.262Z,31.54
2019-06-25T21:07:21.595Z,31.50
2019-06-25T21:09:51.727Z,31.43
2019-06-25T21:12:21.980Z,31.43
2019-06-25T21:14:52.100Z,31.43
2019-06-25T21:17:22.187Z,31.44
2019-06-25T21:19:52.297Z,31.50
2019-06-25T21:22:22.393Z,31.55
2019-06-25T21:24:52.497Z,31.53
2019-06-25T21:27:22.596Z,31.48
2019-06-25T21:29:52.716Z,31.44
2019-06-25T21:32:22.815Z,31.41
2019-06-25T21:34:52.922Z,31.29
2019-06-25T21:37:22.998Z,31.17
2019-06-25T21:39:53.147Z,31.06
2019-06-25T21:42:23.233Z,30.59
2019-06-25T21:44:54.342Z,30.89
2019-06-25T21:47:24.409Z,30.89
2019-06-25T21:49:54.509Z,30.92
2019-06-25T21:52:24.598Z,30.87
2019-06-25T21:54:54.700Z,30.79
2019-06-25T21:57:24.824Z,30.77
2019-06-25T21:59:54.911Z,30.70
2019-06-25T22:02:28.749Z,30.67
2019-06-25T22:04:58.851Z,30.67
2019-06-25T22:07:28.962Z,30.66
2019-06-25T22:09:59.084Z,30.59
2019-06-25T22:12:29.178Z,30.47
2019-06-25T22:14:59.282Z,30.33
2019-06-25T22:17:29.601Z,30.28
2019-06-25T22:19:59.705Z,29.93
2019-06-25T22:22:29.784Z,30.14
2019-06-25T22:24:59.881Z,30.10
2019-06-25T22:27:29.997Z,30.03
2019-06-25T22:30:01.702Z,30.03
2019-06-25T22:32:33.417Z,30.04
2019-06-25T22:35:04.526Z,30.01
2019-06-25T22:37:36.315Z,30.02
2019-06-25T22:40:06.595Z,30.03
2019-06-25T22:42:37.912Z,30.02
2019-06-25T22:45:10.501Z,30.05
2019-06-25T22:47:40.577Z,30.06
2019-06-25T22:50:10.837Z,30.07
2019-06-25T22:52:40.918Z,30.07
2019-06-25T22:55:11.085Z,30.05
2019-06-25T22:57:41.235Z,30.06
2019-06-25T23:00:11.595Z,30.05
2019-06-25T23:02:41.748Z,30.02
2019-06-25T23:05:11.922Z,30.03
2019-06-25T23:07:41.997Z,30.03
2019-06-25T23:10:12.332Z,30.10
2019-06-25T23:12:53.406Z,30.09
2019-06-25T23:15:14.735Z,29.96
2019-06-25T23:17:44.820Z,29.96
2019-06-25T23:20:16.046Z,29.97
2019-06-25T23:22:46.107Z,29.96
2019-06-25T23:25:16.255Z,29.99
2019-06-25T23:27:46.422Z,29.93
2019-06-25T23:30:17.762Z,29.86
2019-06-25T23:32:47.838Z,29.78
2019-06-25T23:35:17.932Z,29.78
2019-06-25T23:37:48.005Z,29.84
2019-06-25T23:40:19.808Z,29.83
2019-06-25T23:42:49.882Z,29.84
2019-06-25T23:45:19.958Z,29.80
2019-06-25T23:47:50.054Z,29.78
2019-06-25T23:50:20.275Z,29.78
2019-06-25T23:52:50.343Z,29.78
2019-06-25T23:55:20.432Z,29.70
2019-06-25T23:57:50.522Z,29.61
